Time;durP1;ratioP1;P1;durP2;ratioP2;P2;SDS_P1;SDS_P2;PMS_P1;PMS_P2;Temp;Humidity;BMP_temperature;BMP_pressure;BME280_temperature;BME280_humidity;BME280_pressure;Samples;Min_cycle;Max_cycle;Signal;HPM_P1;HPM_P2
2022/12/17 13:06:54;;;;;;;38.80;16.92;;;;;;;2.11;100.00;102430.16;5069643;28;20039;-40
2022/12/17 13:09:32;;;;;;;36.65;17.15;;;;;;;2.08;100.00;102414.41;5064480;28;20039;-41
2022/12/17 13:12:03;;;;;;;42.75;17.67;;;;;;;2.19;100.00;102414.63;5063870;28;20031;-41
2022/12/17 13:14:43;;;;;;;35.33;17.40;;;;;;;2.17;100.00;102410.34;5071905;28;20502;-41
2022/12/17 13:17:17;;;;;;;34.35;17.27;;;;;;;2.32;100.00;102417.44;5071596;28;20032;-42
2022/12/17 13:19:56;;;;;;;38.45;18.20;;;;;;;2.38;99.49;102411.75;5072179;28;20033;-41
2022/12/17 13:22:21;;;;;;;39.05;17.90;;;;;;;2.71;98.38;102407.16;5071141;28;20437;-41
2022/12/17 13:24:48;;;;;;;43.15;19.90;;;;;;;2.73;96.01;102406.13;5071493;28;20028;-41
2022/12/17 13:27:30;;;;;;;50.13;23.13;;;;;;;2.39;96.61;102400.16;5071213;28;20086;-41
2022/12/17 13:29:56;;;;;;;45.50;20.73;;;;;;;2.66;96.68;102398.59;5069644;28;20046;-41
2022/12/17 13:32:28;;;;;;;51.20;21.63;;;;;;;2.66;96.52;102402.13;5069966;28;20032;-42
2022/12/17 13:35:14;;;;;;;48.70;21.23;;;;;;;2.94;96.31;102403.09;5071033;28;20037;-42
2022/12/17 13:37:51;;;;;;;41.70;19.52;;;;;;;3.61;94.05;102398.88;5069758;28;20111;-42
2022/12/17 13:40:35;;;;;;;43.07;20.23;;;;;;;3.90;90.64;102397.00;5070421;28;20035;-42
2022/12/17 13:43:01;;;;;;;47.75;19.17;;;;;;;3.61;89.46;102401.56;5071084;28;20099;-43
2022/12/17 13:45:26;;;;;;;48.33;20.50;;;;;;;3.40;90.07;102397.59;5071028;28;20387;-42
2022/12/17 13:47:54;;;;;;;44.65;19.48;;;;;;;3.24;90.12;102390.59;5071357;28;20083;-41
2022/12/17 13:50:29;;;;;;;41.33;18.25;;;;;;;3.39;90.51;102403.84;5070779;28;20025;-41
2022/12/17 13:52:55;;;;;;;38.20;18.75;;;;;;;3.41;90.04;102399.31;5071028;28;20020;-41
2022/12/17 13:55:25;;;;;;;37.10;19.25;;;;;;;3.65;87.83;102397.72;5070886;28;20028;-41
2022/12/17 13:57:52;;;;;;;43.40;18.55;;;;;;;4.03;86.27;102394.41;5070753;28;20016;-41
2022/12/17 14:00:29;;;;;;;37.75;18.85;;;;;;;3.71;85.67;102401.78;5070633;28;20199;-41
2022/12/17 14:02:54;;;;;;;39.10;18.85;;;;;;;3.36;86.69;102409.38;5070682;28;20020;-41
2022/12/17 14:05:28;;;;;;;38.10;18.73;;;;;;;3.05;87.24;102403.28;5070752;28;20031;-41
2022/12/17 14:07:57;;;;;;;40.97;19.10;;;;;;;3.20;88.70;102405.00;5070698;28;20055;-41
2022/12/17 14:10:23;;;;;;;40.85;20.25;;;;;;;3.14;88.14;102409.88;5069525;28;20028;-41
2022/12/17 14:12:49;;;;;;;47.47;21.13;;;;;;;3.07;89.08;102409.38;5068871;28;20347;-42
2022/12/17 14:15:23;;;;;;;42.15;20.15;;;;;;;2.99;89.05;102411.66;5068945;28;20423;-41
2022/12/17 14:17:49;;;;;;;34.03;19.55;;;;;;;2.74;90.35;102415.81;5070215;28;20020;-41
2022/12/17 14:20:18;;;;;;;41.95;21.88;;;;;;;2.57;91.58;102418.63;5069353;28;20027;-41
2022/12/17 14:22:49;;;;;;;41.13;21.95;;;;;;;2.66;92.40;102420.75;5069174;28;20036;-40
2022/12/17 14:25:19;;;;;;;40.55;21.48;;;;;;;2.72;91.90;102425.69;5068955;28;20475;-42
2022/12/17 14:27:57;;;;;;;42.13;21.75;;;;;;;2.69;92.19;102430.34;5068972;28;20098;-40
2022/12/17 14:30:36;;;;;;;42.25;22.08;;;;;;;2.84;92.35;102430.28;5070332;28;20475;-40
2022/12/17 14:33:04;;;;;;;40.55;21.92;;;;;;;2.54;92.92;102442.72;5070985;28;20107;-41
2022/12/17 14:35:35;;;;;;;45.90;23.08;;;;;;;2.38;93.44;102454.25;5070773;28;20392;-41
2022/12/17 14:38:00;;;;;;;46.72;22.27;;;;;;;2.32;94.43;102451.97;5066006;28;20470;-40
2022/12/17 14:40:26;;;;;;;45.88;23.80;;;;;;;2.15;94.53;102441.44;5050702;28;20027;-40
2022/12/17 14:42:57;;;;;;;47.90;23.23;;;;;;;2.06;95.34;102436.66;5047588;28;20052;-40
2022/12/17 14:45:24;;;;;;;50.22;22.65;;;;;;;2.03;95.68;102450.97;5047561;28;20349;-41
2022/12/17 14:48:00;;;;;;;42.45;21.90;;;;;;;1.80;97.12;102448.75;5049111;28;20029;-40
2022/12/17 14:50:31;;;;;;;42.58;23.15;;;;;;;1.78;98.01;102459.44;5032080;28;20120;-41
2022/12/17 14:52:59;;;;;;;39.10;22.40;;;;;;;1.71;98.59;102453.63;5050674;28;20021;-41
2022/12/17 14:55:27;;;;;;;46.25;23.10;;;;;;;1.57;99.85;102460.63;5050263;28;20060;-41
2022/12/17 14:58:15;;;;;;;42.97;23.80;;;;;;;1.57;100.00;102455.31;5050436;28;20087;-40
2022/12/17 15:00:42;;;;;;;49.33;23.02;;;;;;;1.43;100.00;102464.88;5050425;28;20033;-40
2022/12/17 15:03:16;;;;;;;49.08;24.05;;;;;;;1.40;100.00;102461.56;5050419;28;20036;-41
2022/12/17 15:05:41;;;;;;;43.03;22.85;;;;;;;1.26;100.00;102468.47;5052123;28;20029;-42
2022/12/17 15:08:07;;;;;;;55.05;26.42;;;;;;;1.12;100.00;102472.78;5050542;28;20109;-42
2022/12/17 15:10:32;;;;;;;49.20;25.27;;;;;;;1.04;100.00;102476.66;5050123;28;20119;-41
2022/12/17 15:12:57;;;;;;;52.60;25.55;;;;;;;1.02;100.00;102475.88;5050300;28;20029;-40
2022/12/17 15:15:23;;;;;;;53.50;25.55;;;;;;;0.94;100.00;102478.06;5049865;28;20467;-41
2022/12/17 15:17:48;;;;;;;51.20;27.67;;;;;;;0.87;100.00;102476.69;5050011;28;20036;-41
2022/12/17 15:20:19;;;;;;;58.70;26.83;;;;;;;0.78;100.00;102477.16;5050111;28;20032;-40
2022/12/17 15:22:45;;;;;;;49.38;25.92;;;;;;;0.70;100.00;102485.50;5050145;28;20029;-40
2022/12/17 15:25:15;;;;;;;56.47;28.30;;;;;;;0.58;100.00;102484.34;5050018;28;20031;-41
2022/12/17 15:27:41;;;;;;;58.70;28.40;;;;;;;0.58;100.00;102492.28;5049583;28;20440;-40
2022/12/17 15:30:12;;;;;;;59.63;28.08;;;;;;;0.51;100.00;102498.81;5049591;28;20041;-41
2022/12/17 15:32:37;;;;;;;64.38;30.52;;;;;;;0.45;100.00;102496.47;5049742;28;20033;-41
2022/12/17 15:35:03;;;;;;;63.35;30.25;;;;;;;0.41;100.00;102502.84;5049753;28;20384;-40
2022/12/17 15:37:28;;;;;;;68.40;32.10;;;;;;;0.35;100.00;102503.16;5049262;28;20377;-41
2022/12/17 15:39:55;;;;;;;72.85;31.50;;;;;;;0.35;100.00;102511.94;5049827;28;20021;-41
2022/12/17 15:45:04;;;;;;;74.13;34.03;;;;;;;0.12;100.00;102520.13;5049819;28;20028;-40
2022/12/17 15:47:30;;;;;;;74.28;35.83;;;;;;;0.04;100.00;102520.50;5049994;28;20029;-40
2022/12/17 15:49:55;;;;;;;84.07;38.10;;;;;;;-0.06;100.00;102520.06;5049407;28;20025;-41
2022/12/17 15:52:20;;;;;;;84.53;38.47;;;;;;;-0.26;100.00;102526.31;5050036;28;20045;-40
2022/12/17 15:54:46;;;;;;;88.18;40.08;;;;;;;-0.43;100.00;102522.69;5049685;28;20029;-40
2022/12/17 15:57:11;;;;;;;85.55;41.10;;;;;;;-0.41;100.00;102526.16;5051990;28;20472;-40
2022/12/17 15:59:37;;;;;;;87.50;41.10;;;;;;;-0.51;100.00;102526.53;5053072;28;20021;-41
2022/12/17 16:02:02;;;;;;;94.32;42.40;;;;;;;-0.62;100.00;102526.16;5053099;28;20496;-41
2022/12/17 16:04:28;;;;;;;104.57;44.70;;;;;;;-0.71;100.00;102516.88;5053393;28;20107;-41
2022/12/17 16:06:53;;;;;;;97.88;43.00;;;;;;;-0.73;100.00;102531.94;5053241;28;20032;-40
2022/12/17 16:09:23;;;;;;;99.22;43.85;;;;;;;-0.78;100.00;102523.34;5051836;28;20025;-41
2022/12/17 16:11:51;;;;;;;103.15;43.00;;;;;;;-0.84;100.00;102522.75;5051596;28;20292;-41
2022/12/17 16:14:16;;;;;;;107.60;43.88;;;;;;;-0.91;100.00;102538.03;5053259;28;20061;-41
2022/12/17 16:16:41;;;;;;;111.13;44.40;;;;;;;-1.03;100.00;102543.81;5053073;28;20080;-41
2022/12/17 16:19:07;;;;;;;102.15;45.90;;;;;;;-1.16;100.00;102539.06;5053207;28;20056;-41
2022/12/17 16:21:32;;;;;;;112.40;45.75;;;;;;;-1.20;100.00;102537.47;5052988;28;20067;-41
2022/12/17 16:23:57;;;;;;;109.40;46.00;;;;;;;-1.25;100.00;102539.44;5053272;28;20048;-41
2022/12/17 16:26:23;;;;;;;110.78;46.83;;;;;;;-1.27;100.00;102546.56;5052666;28;20028;-41
2022/12/17 16:28:48;;;;;;;112.78;44.95;;;;;;;-1.28;100.00;102547.50;5052620;28;20073;-41
2022/12/17 16:31:14;;;;;;;112.32;43.00;;;;;;;-1.35;100.00;102546.88;5052440;28;20032;-40
2022/12/17 16:33:41;;;;;;;109.80;45.10;;;;;;;-1.37;100.00;102550.50;5052650;28;20487;-40
2022/12/17 16:36:07;;;;;;;114.80;44.83;;;;;;;-1.46;100.00;102550.91;5051223;28;20025;-40
2022/12/17 16:38:33;;;;;;;122.00;45.47;;;;;;;-1.44;100.00;102539.34;5052586;28;20057;-39
2022/12/17 16:41:00;;;;;;;116.15;45.42;;;;;;;-1.55;100.00;102549.50;5052316;28;20128;-39
2022/12/17 16:43:26;;;;;;;128.70;46.20;;;;;;;-1.62;100.00;102546.22;5050919;28;20032;-40
2022/12/17 16:45:52;;;;;;;127.25;45.58;;;;;;;-1.62;100.00;102551.50;5052542;28;20029;-41
2022/12/17 16:48:19;;;;;;;118.45;44.13;;;;;;;-1.63;100.00;102539.22;5052198;28;20028;-40
2022/12/17 16:50:45;;;;;;;138.32;47.38;;;;;;;-1.69;100.00;102538.59;5052013;28;20040;-40
2022/12/17 16:53:11;;;;;;;124.97;44.63;;;;;;;-1.75;100.00;102549.41;5052268;28;20495;-41
2022/12/17 16:55:54;;;;;;;122.20;45.45;;;;;;;-1.80;100.00;102552.22;5052079;28;20025;-41
2022/12/17 16:58:20;;;;;;;120.60;44.22;;;;;;;-1.88;100.00;102544.59;5059375;28;20090;-40
2022/12/17 17:00:53;;;;;;;125.95;44.33;;;;;;;-1.89;100.00;102542.06;5072233;28;20028;-41
2022/12/17 17:03:18;;;;;;;127.38;46.03;;;;;;;-1.99;100.00;102547.66;5071970;28;20162;-40
2022/12/17 17:05:43;;;;;;;126.25;43.95;;;;;;;-1.98;100.00;102548.50;5072910;28;20105;-40
2022/12/17 17:08:09;;;;;;;135.27;46.42;;;;;;;-2.03;100.00;102550.47;5072261;28;20039;-41
2022/12/17 17:10:35;;;;;;;134.10;45.85;;;;;;;-1.99;100.00;102550.31;5051919;28;20025;-39
2022/12/17 17:13:01;;;;;;;130.88;45.33;;;;;;;-2.05;100.00;102554.97;5050084;28;20495;-41
2022/12/17 17:15:26;;;;;;;142.02;47.85;;;;;;;-2.10;100.00;102555.13;5051974;28;20061;-41
2022/12/17 17:17:52;;;;;;;122.60;45.03;;;;;;;-2.10;100.00;102555.13;5051259;28;20552;-41
2022/12/17 17:20:17;;;;;;;136.20;45.80;;;;;;;-2.11;100.00;102553.41;5051679;28;20017;-41
2022/12/17 17:22:42;;;;;;;131.32;44.67;;;;;;;-2.16;100.00;102554.50;5051416;28;20021;-41
2022/12/17 17:25:08;;;;;;;134.55;45.50;;;;;;;-2.23;100.00;102559.16;5051409;28;20064;-39
2022/12/17 17:27:33;;;;;;;135.20;47.00;;;;;;;-2.24;100.00;102560.06;5051305;28;20052;-41
2022/12/17 17:29:58;;;;;;;140.23;44.95;;;;;;;-2.28;100.00;102558.47;5051457;28;20061;-40
2022/12/17 17:32:24;;;;;;;146.65;47.25;;;;;;;-2.31;100.00;102564.72;5051204;28;20137;-41
2022/12/17 17:34:50;;;;;;;142.48;48.85;;;;;;;-2.31;100.00;102561.22;5051229;28;20029;-41
2022/12/17 17:37:15;;;;;;;144.55;47.60;;;;;;;-2.34;100.00;102561.31;5051112;28;20029;-40
2022/12/17 17:39:40;;;;;;;146.27;48.50;;;;;;;-2.37;100.00;102562.31;5051171;28;20078;-42
2022/12/17 17:42:06;;;;;;;148.43;49.53;;;;;;;-2.37;100.00;102566.69;5050742;28;20379;-40
2022/12/17 17:44:31;;;;;;;145.52;46.88;;;;;;;-2.47;100.00;102567.03;5032569;28;20060;-40
2022/12/17 17:46:57;;;;;;;140.77;44.83;;;;;;;-2.51;100.00;102575.13;5050436;28;20091;-41
2022/12/17 17:49:22;;;;;;;156.00;47.75;;;;;;;-2.56;100.00;102567.34;5050714;28;20025;-40
2022/12/17 17:51:47;;;;;;;148.43;46.67;;;;;;;-2.65;100.00;102565.91;5050283;28;20388;-41
2022/12/17 17:54:13;;;;;;;154.38;48.90;;;;;;;-2.65;100.00;102568.56;5050783;28;20033;-42
2022/12/17 17:56:39;;;;;;;154.55;46.60;;;;;;;-2.65;100.00;102559.78;5050652;28;20025;-39
2022/12/17 17:59:07;;;;;;;149.65;47.75;;;;;;;-2.74;100.00;102558.34;5050606;28;20104;-40
2022/12/17 18:01:38;;;;;;;160.93;47.90;;;;;;;-2.73;100.00;102556.56;5050918;28;20063;-40
2022/12/17 18:04:04;;;;;;;150.27;45.50;;;;;;;-2.73;100.00;102569.75;5050793;28;20029;-41
2022/12/17 18:06:30;;;;;;;156.48;46.33;;;;;;;-2.81;100.00;102561.25;5050689;28;20041;-40
2022/12/17 18:08:56;;;;;;;167.02;49.67;;;;;;;-2.79;100.00;102556.75;5050688;28;20025;-40
2022/12/17 18:11:22;;;;;;;152.60;46.50;;;;;;;-2.78;100.00;102556.72;5049408;28;20365;-41
2022/12/17 18:13:54;;;;;;;166.23;48.60;;;;;;;-2.78;100.00;102558.50;5050577;28;20466;-41
2022/12/17 18:16:31;;;;;;;163.10;46.70;;;;;;;-2.79;100.00;102565.56;5050019;28;20032;-41
2022/12/17 18:19:08;;;;;;;163.23;48.15;;;;;;;-2.83;100.00;102569.19;5050558;28;20098;-41
2022/12/17 18:21:34;;;;;;;173.77;48.97;;;;;;;-2.84;100.00;102574.50;5049497;28;20082;-41
2022/12/17 18:24:02;;;;;;;157.73;46.38;;;;;;;-2.85;100.00;102570.16;5050238;28;20024;-41
2022/12/17 18:26:30;;;;;;;160.98;49.47;;;;;;;-2.89;100.00;102566.78;5050347;28;20036;-41
2022/12/17 18:28:57;;;;;;;;;;;;;;;-2.85;100.00;102576.28;5050726;28;20116;-40
2022/12/17 18:31:24;;;;;;;157.73;44.78;;;;;;;-2.87;100.00;102573.72;5050646;28;19912;-40
2022/12/17 18:33:53;;;;;;;170.65;46.92;;;;;;;-2.89;100.00;102580.81;5050085;28;20472;-40
2022/12/17 18:36:22;;;;;;;177.73;50.97;;;;;;;-2.90;100.00;102584.38;5048630;28;20032;-40
2022/12/17 18:38:49;;;;;;;171.18;49.55;;;;;;;-2.97;100.00;102582.00;5048744;28;20029;-41
2022/12/17 18:44:03;;;;;;;173.05;45.92;;;;;;;-3.06;100.00;102587.56;5049248;28;20120;-39
2022/12/17 18:46:29;;;;;;;159.45;46.67;;;;;;;-3.08;100.00;102592.91;5049819;28;20419;-40
2022/12/17 18:49:04;;;;;;;161.82;48.72;;;;;;;-3.02;100.00;102584.78;5049587;28;20067;-41
2022/12/17 18:51:29;;;;;;;165.07;46.13;;;;;;;-3.14;100.00;102593.94;5049945;28;20030;-40
2022/12/17 18:53:58;;;;;;;164.40;45.50;;;;;;;-3.12;100.00;102591.25;5049981;28;20033;-40
2022/12/17 18:56:24;;;;;;;148.95;43.08;;;;;;;-3.17;100.00;102596.66;5050087;28;20029;-39
2022/12/17 18:58:54;;;;;;;151.82;45.42;;;;;;;-3.06;100.00;102598.09;5050043;28;20083;-41
2022/12/17 19:01:20;;;;;;;145.80;42.95;;;;;;;-3.14;100.00;102600.97;5049709;28;20056;-40
2022/12/17 19:03:46;;;;;;;153.50;46.50;;;;;;;-3.09;100.00;102599.91;5049955;28;20107;-40
2022/12/17 19:06:11;;;;;;;141.50;44.53;;;;;;;-3.08;100.00;102595.53;5050806;28;20116;-41
2022/12/17 19:08:36;;;;;;;141.32;42.50;;;;;;;-3.12;100.00;102604.44;5050692;28;20036;-41
2022/12/17 19:11:03;;;;;;;145.55;40.78;;;;;;;-3.11;100.00;102603.50;5049957;28;20055;-41
2022/12/17 19:13:30;;;;;;;155.60;44.20;;;;;;;-3.18;100.00;102605.50;5049906;28;20025;-41
2022/12/17 19:15:55;;;;;;;158.95;43.30;;;;;;;-3.16;100.00;102616.84;5050055;28;20430;-40
2022/12/17 19:18:20;;;;;;;153.80;44.28;;;;;;;-3.15;100.00;102615.06;5049661;28;20104;-41
2022/12/17 19:20:46;;;;;;;147.38;44.13;;;;;;;-3.13;100.00;102621.16;5065701;28;20589;-41
2022/12/17 19:23:11;;;;;;;157.07;44.67;;;;;;;-3.18;100.00;102623.06;5068815;28;20491;-40
2022/12/17 19:25:36;;;;;;;150.32;42.28;;;;;;;-3.18;100.00;102621.28;5067840;28;20297;-41
2022/12/17 19:28:02;;;;;;;151.43;41.05;;;;;;;-3.20;100.00;102631.00;5069356;28;20045;-40
2022/12/17 19:30:27;;;;;;;163.55;42.78;;;;;;;-3.15;100.00;102625.59;5069385;28;20475;-40
2022/12/17 19:32:52;;;;;;;155.18;43.42;;;;;;;-3.19;100.00;102626.59;5071285;28;20021;-41
2022/12/17 19:35:18;;;;;;;160.75;43.05;;;;;;;-3.21;100.00;102615.25;5074010;28;20028;-41
2022/12/17 19:37:43;;;;;;;146.82;42.30;;;;;;;-3.19;100.00;102619.56;5074209;28;20021;-41
2022/12/17 19:40:09;;;;;;;156.27;41.95;;;;;;;-3.23;100.00;102620.56;5074589;28;20464;-39
2022/12/17 19:42:34;;;;;;;144.10;42.88;;;;;;;-3.14;100.00;102627.31;5072588;28;20032;-40
2022/12/17 19:44:59;;;;;;;142.80;42.03;;;;;;;-3.15;100.00;102625.59;5072742;28;20467;-40
2022/12/17 19:47:25;;;;;;;137.50;38.88;;;;;;;-3.16;100.00;102637.03;5074491;28;20418;-40
2022/12/17 19:49:50;;;;;;;149.40;41.28;;;;;;;-3.15;100.00;102638.78;5074080;28;20476;-40
2022/12/17 19:52:15;;;;;;;141.82;39.28;;;;;;;-3.22;100.00;102642.50;5072503;28;20082;-40
2022/12/17 19:54:41;;;;;;;134.30;40.47;;;;;;;-3.15;100.00;102641.41;5073867;28;20032;-41
2022/12/17 19:57:06;;;;;;;147.00;41.10;;;;;;;-3.06;100.00;102651.63;5073823;28;20020;-41
2022/12/17 19:59:32;;;;;;;159.40;43.33;;;;;;;-3.07;100.00;102647.28;5073444;28;20107;-40
2022/12/17 20:02:02;;;;;;;152.77;42.03;;;;;;;-3.04;100.00;102639.28;5073351;28;20024;-40
2022/12/17 20:04:27;;;;;;;160.82;44.58;;;;;;;-3.06;100.00;102641.09;5073154;28;20056;-39
2022/12/17 20:06:53;;;;;;;151.45;43.50;;;;;;;-3.03;100.00;102635.72;5073126;28;20067;-42
2022/12/17 20:09:18;;;;;;;157.60;42.30;;;;;;;-2.99;100.00;102639.13;5072787;28;20028;-41
2022/12/17 20:11:46;;;;;;;139.45;40.95;;;;;;;-3.12;100.00;102639.53;5072864;28;20033;-40
2022/12/17 20:14:20;;;;;;;149.57;40.60;;;;;;;-3.06;100.00;102630.56;5072804;28;20392;-42
2022/12/17 20:16:51;;;;;;;136.38;39.17;;;;;;;-3.11;100.00;102641.25;5072632;28;20032;-41
2022/12/17 20:19:20;;;;;;;132.50;38.50;;;;;;;-3.08;100.00;102640.31;5072579;28;20134;-40
2022/12/17 20:21:45;;;;;;;139.07;40.35;;;;;;;-3.09;100.00;102646.47;5072617;28;20032;-41
2022/12/17 20:24:11;;;;;;;138.88;39.08;;;;;;;-3.04;100.00;102651.59;5072759;28;20494;-41
2022/12/17 20:26:37;;;;;;;133.60;37.33;;;;;;;-3.09;100.00;102647.31;5071230;28;20025;-41
2022/12/17 20:29:03;;;;;;;133.07;37.33;;;;;;;-3.16;100.00;102652.81;5071279;28;20040;-40
2022/12/17 20:31:29;;;;;;;117.07;38.00;;;;;;;-3.16;100.00;102644.94;5072533;28;20024;-40
2022/12/17 20:33:54;;;;;;;134.93;38.35;;;;;;;-3.18;100.00;102655.53;5072572;28;20059;-41
2022/12/17 20:36:20;;;;;;;121.38;36.05;;;;;;;-3.13;100.00;102655.38;5072364;28;20320;-41
2022/12/17 20:38:46;;;;;;;126.00;38.05;;;;;;;-3.17;100.00;102653.75;5072646;28;20070;-40
2022/12/17 20:41:17;;;;;;;136.25;38.42;;;;;;;-3.15;100.00;102652.78;5072635;28;20024;-39
2022/12/17 20:43:43;;;;;;;133.30;36.80;;;;;;;-3.13;100.00;102656.25;5071374;28;20025;-40
2022/12/17 20:46:09;;;;;;;139.65;39.35;;;;;;;-3.12;100.00;102657.94;5071947;28;20414;-40
2022/12/17 20:48:39;;;;;;;134.20;40.85;;;;;;;-3.02;100.00;102660.31;5072527;28;20028;-40
2022/12/17 20:51:16;;;;;;;134.77;39.72;;;;;;;-3.08;100.00;102653.47;5072065;28;20048;-39
2022/12/17 20:53:42;;;;;;;139.93;39.35;;;;;;;-2.96;100.00;102663.59;5072468;28;20085;-40
2022/12/17 20:56:10;;;;;;;133.07;39.42;;;;;;;-3.02;100.00;102665.56;5072846;28;20067;-40
2022/12/17 20:58:36;;;;;;;132.75;40.60;;;;;;;-2.97;100.00;102664.50;5072787;28;20054;-40
2022/12/17 21:01:10;;;;;;;130.45;38.67;;;;;;;-2.99;100.00;102666.34;5072345;28;20029;-41
2022/12/17 21:03:36;;;;;;;137.30;39.80;;;;;;;-2.92;100.00;102659.09;5073366;28;20132;-40
2022/12/17 21:06:04;;;;;;;133.27;36.70;;;;;;;-3.05;100.00;102658.63;5071775;28;20036;-41
2022/12/17 21:08:30;;;;;;;133.30;38.58;;;;;;;-3.20;100.00;102653.84;5072143;28;20436;-40
2022/12/17 21:10:55;;;;;;;139.57;41.25;;;;;;;-3.27;100.00;102653.16;5071803;28;20072;-41
2022/12/17 21:13:30;;;;;;;146.40;41.42;;;;;;;-3.24;100.00;102658.34;5070250;28;20117;-41
2022/12/17 21:16:04;;;;;;;127.88;37.25;;;;;;;-3.22;100.00;102664.41;5070274;28;20029;-41
2022/12/17 21:18:30;;;;;;;126.10;39.38;;;;;;;-3.23;100.00;102675.88;5072080;28;20438;-41
2022/12/17 21:21:01;;;;;;;140.50;39.80;;;;;;;-3.23;100.00;102683.78;5071863;28;20025;-41
2022/12/17 21:23:27;;;;;;;142.05;40.10;;;;;;;-3.24;100.00;102683.81;5071669;28;20139;-41
2022/12/17 21:26:01;;;;;;;137.43;41.25;;;;;;;-3.15;100.00;102683.53;5071517;28;20344;-40
2022/12/17 21:28:27;;;;;;;138.85;40.70;;;;;;;-3.17;100.00;102698.53;5071817;28;20074;-39
2022/12/17 21:30:52;;;;;;;135.93;40.25;;;;;;;-3.10;100.00;102702.69;5071409;28;20100;-42
2022/12/17 21:33:18;;;;;;;129.60;39.72;;;;;;;-3.17;100.00;102703.78;5071620;28;20025;-40
2022/12/17 21:35:43;;;;;;;133.65;40.63;;;;;;;-3.28;100.00;102698.00;5071562;28;20111;-42
2022/12/17 21:38:09;;;;;;;136.95;40.95;;;;;;;-3.32;100.00;102703.34;5071439;28;20028;-40
2022/12/17 21:40:35;;;;;;;129.30;41.30;;;;;;;-3.38;100.00;102698.25;5071199;28;20032;-40
2022/12/17 21:43:01;;;;;;;135.70;40.10;;;;;;;-3.40;100.00;102697.44;5071848;28;20108;-41
2022/12/17 21:45:26;;;;;;;124.05;38.28;;;;;;;-3.34;100.00;102702.53;5069393;28;20124;-40
2022/12/17 21:47:52;;;;;;;127.55;38.55;;;;;;;-3.29;100.00;102707.69;5071299;28;20025;-43
2022/12/17 21:50:17;;;;;;;127.40;38.67;;;;;;;-3.25;100.00;102718.97;5071234;28;20070;-41
2022/12/17 21:52:42;;;;;;;130.10;37.25;;;;;;;-3.38;100.00;102711.41;5071092;28;20069;-41
2022/12/17 21:55:08;;;;;;;125.50;38.05;;;;;;;-3.33;100.00;102719.19;5071235;28;20138;-41
2022/12/17 21:57:33;;;;;;;121.10;39.25;;;;;;;-3.31;100.00;102717.38;5070800;28;20025;-41
2022/12/17 21:59:58;;;;;;;117.07;36.50;;;;;;;-3.29;100.00;102723.47;5071342;28;20055;-41
2022/12/17 22:02:24;;;;;;;121.38;37.42;;;;;;;-3.29;100.00;102734.00;5070847;28;20472;-40
2022/12/17 22:04:49;;;;;;;115.57;36.95;;;;;;;-3.33;100.00;102722.69;5070797;28;20438;-41
2022/12/17 22:07:14;;;;;;;126.70;40.58;;;;;;;-3.31;100.00;102730.53;5070685;28;20021;-41
2022/12/17 22:09:40;;;;;;;127.75;38.97;;;;;;;-3.27;100.00;102731.31;5070954;28;20042;-40
2022/12/17 22:14:49;;;;;;;123.65;37.45;;;;;;;-3.36;100.00;102722.78;5070652;28;20458;-41
2022/12/17 22:17:15;;;;;;;128.50;39.05;;;;;;;-3.35;100.00;102724.50;5069154;28;20095;-39
2022/12/17 22:19:40;;;;;;;128.38;38.60;;;;;;;-3.35;100.00;102713.97;5071260;28;20396;-40
2022/12/17 22:22:05;;;;;;;131.00;38.30;;;;;;;-3.33;100.00;102717.41;5071543;28;20031;-40
2022/12/17 22:24:31;;;;;;;121.97;36.42;;;;;;;-3.30;100.00;102716.47;5069870;28;20020;-40
2022/12/17 22:26:59;;;;;;;114.70;37.10;;;;;;;-3.37;100.00;102712.28;5070357;28;20035;-40
2022/12/17 22:34:57;;;;;;;117.15;36.85;;;;;;;-3.56;100.00;102698.81;5070452;28;20044;-41
2022/12/17 22:37:23;;;;;;;107.15;34.63;;;;;;;-3.58;100.00;102698.88;5070418;28;20029;-41
2022/12/17 22:39:48;;;;;;;123.35;35.53;;;;;;;-3.69;100.00;102702.72;5070432;28;20031;-41
2022/12/17 22:44:57;;;;;;;115.28;36.90;;;;;;;-3.72;100.00;102713.31;5071038;28;20090;-40
2022/12/17 22:47:22;;;;;;;114.72;36.35;;;;;;;-3.68;100.00;102709.72;5070700;28;20021;-39
2022/12/17 22:49:47;;;;;;;115.90;34.63;;;;;;;-3.53;100.00;102715.41;5070700;28;20078;-41
2022/12/17 22:52:13;;;;;;;113.38;33.63;;;;;;;-3.68;100.00;102720.25;5070449;28;20016;-41
2022/12/17 22:54:38;;;;;;;112.78;35.95;;;;;;;-3.75;100.00;102714.28;5070771;28;20040;-41
2022/12/17 22:57:04;;;;;;;121.93;38.53;;;;;;;-3.71;100.00;102715.94;5070973;28;20060;-40
2022/12/17 22:59:29;;;;;;;124.07;36.03;;;;;;;-3.72;100.00;102713.31;5070854;28;20032;-42
2022/12/17 23:01:54;;;;;;;124.45;37.80;;;;;;;-3.69;100.00;102708.81;5070966;28;20031;-42
2022/12/17 23:04:20;;;;;;;119.30;35.72;;;;;;;-3.70;100.00;102716.78;5070235;28;20028;-42
2022/12/17 23:06:45;;;;;;;119.82;35.90;;;;;;;-3.76;100.00;102712.56;5071650;28;20055;-40
2022/12/17 23:09:12;;;;;;;125.28;38.30;;;;;;;-3.82;100.00;102713.59;5074383;28;20051;-40
2022/12/17 23:11:38;;;;;;;118.95;36.17;;;;;;;-3.81;100.00;102715.31;5074742;28;20470;-39
2022/12/17 23:14:05;;;;;;;123.22;37.25;;;;;;;-3.91;100.00;102711.22;5074522;28;20100;-40
2022/12/17 23:16:31;;;;;;;126.32;37.00;;;;;;;-3.91;100.00;102713.84;5074386;28;20410;-39
2022/12/17 23:18:59;;;;;;;126.07;36.67;;;;;;;-3.95;100.00;102711.34;5074359;28;20103;-42
2022/12/17 23:21:25;;;;;;;114.55;36.67;;;;;;;-3.90;100.00;102707.66;5074374;28;20017;-40
2022/12/17 23:23:52;;;;;;;119.25;34.90;;;;;;;-3.96;100.00;102707.84;5074476;28;20497;-38
2022/12/17 23:26:21;;;;;;;125.75;36.03;;;;;;;-3.94;100.00;102705.19;5074196;28;20040;-42
2022/12/17 23:28:47;;;;;;;114.75;35.25;;;;;;;-3.93;100.00;102699.88;5074244;28;20048;-40
2022/12/17 23:31:16;;;;;;;124.95;36.60;;;;;;;-3.89;100.00;102706.78;5075133;28;20479;-40
2022/12/17 23:33:41;;;;;;;126.25;36.83;;;;;;;-3.86;100.00;102704.06;5075403;28;20388;-39
2022/12/17 23:36:10;;;;;;;114.97;34.80;;;;;;;-3.88;100.00;102697.97;5074888;28;20035;-40
2022/12/17 23:38:36;;;;;;;124.63;35.30;;;;;;;-3.76;100.00;102702.91;5074890;28;20348;-40
2022/12/17 23:41:21;;;;;;;117.13;35.97;;;;;;;-3.88;100.00;102700.59;5074843;28;20028;-40
2022/12/17 23:43:48;;;;;;;136.15;34.80;;;;;;;-3.88;100.00;102697.13;5073955;28;20029;-39
2022/12/17 23:46:14;;;;;;;114.95;32.95;;;;;;;-3.82;100.00;102686.41;5073857;28;20365;-38
2022/12/17 23:48:41;;;;;;;115.45;34.03;;;;;;;-3.99;100.00;102676.38;5073435;28;20063;-40
2022/12/17 23:51:07;;;;;;;130.13;35.17;;;;;;;-4.04;100.00;102678.28;5073732;28;20020;-40
2022/12/17 23:53:34;;;;;;;118.93;31.80;;;;;;;-4.15;100.00;102668.06;5073992;28;20066;-39
2022/12/17 23:56:17;;;;;;;118.40;32.53;;;;;;;-4.02;100.00;102660.69;5073970;28;20452;-40
2022/12/17 23:58:44;;;;;;;118.10;33.65;;;;;;;-4.08;100.00;102652.94;5072174;28;20062;-39
